Terminal Aerodrome Forecast
Issued by NWS Upton, NY

Home | Current Version | Previous Version | Text Only | Print | Product List | Glossary On
Versions: 1 2 3 4 5 6 7 8 9 10 11 12 13 14 15 16 17 18 19 20 21 22 23 24 25 26 27 28 29 30 31 32 33 34 35 36
369
FTUS41 KOKX 301502 AAD
TAFLGA
TAF AMD
KLGA 301502Z 3015/3112 VRB03KT P6SM BKN012 OVC090
     FM301700 21006KT P6SM SCT012 SCT040 OVC090
     FM301800 18010KT P6SM VCSH BKN090 OVC250
     FM302100 18010KT P6SM BKN050
     FM310000 22006KT P6SM BKN050
     FM310600 VRB04KT P6SM BKN050=

USA.gov is the U.S. government's official web portal to all federal, state and local government web resources and services.